Time;durP1;ratioP1;P1;durP2;ratioP2;P2;SDS_P1;SDS_P2;PMS_P1;PMS_P2;Temp;Humidity;BMP_temperature;BMP_pressure;BME280_temperature;BME280_humidity;BME280_pressure;Samples;Min_cycle;Max_cycle;Signal;HPM_P1;HPM_P2
2022/06/21 00:02:07;;;;;;;5.65;3.72;;;;;;;20.02;61.11;95417.16;5072783;28;20507;-66
2022/06/21 00:04:33;;;;;;;7.18;4.03;;;;;;;19.99;61.93;95414.88;5072747;28;20029;-66
2022/06/21 00:07:02;;;;;;;6.30;4.22;;;;;;;19.96;62.42;95420.63;5072765;28;20463;-66
2022/06/21 00:09:28;;;;;;;4.75;3.72;;;;;;;19.94;62.43;95419.22;5072274;28;20085;-66
2022/06/21 00:11:53;;;;;;;3.70;3.38;;;;;;;19.89;62.26;95414.44;5072591;28;20024;-66
2022/06/21 00:14:19;;;;;;;6.13;3.53;;;;;;;19.90;62.34;95416.94;5072172;28;20024;-66
2022/06/21 00:16:45;;;;;;;6.75;4.10;;;;;;;19.86;62.33;95410.34;5072900;28;20108;-66
2022/06/21 00:19:20;;;;;;;4.13;3.58;;;;;;;19.94;61.90;95406.66;5071959;28;20032;-66
2022/06/21 00:21:46;;;;;;;4.32;3.92;;;;;;;19.98;61.67;95399.88;5072643;28;20033;-65
2022/06/21 00:24:13;;;;;;;9.13;3.70;;;;;;;19.98;61.80;95405.22;5067051;28;20036;-66
2022/06/21 00:26:38;;;;;;;3.80;3.50;;;;;;;19.91;62.13;95407.09;5070950;28;20153;-66
2022/06/21 00:29:04;;;;;;;8.55;4.05;;;;;;;19.83;62.04;95408.09;5071897;28;20103;-66
2022/06/21 00:31:32;;;;;;;5.80;3.58;;;;;;;19.81;62.30;95402.13;5071941;28;20041;-65
2022/06/21 00:34:04;;;;;;;7.10;3.78;;;;;;;19.75;62.00;95393.09;5071958;28;20036;-65
2022/06/21 00:36:33;;;;;;;5.78;3.95;;;;;;;19.70;61.74;95405.44;5070347;28;20057;-66
2022/06/21 00:39:00;;;;;;;5.82;3.80;;;;;;;19.62;62.76;95409.13;5072378;28;20039;-66
2022/06/21 00:41:44;;;;;;;5.85;4.05;;;;;;;19.56;63.11;95401.94;5071417;28;20082;-66
2022/06/21 00:44:22;;;;;;;9.02;3.70;;;;;;;19.52;63.17;95403.38;5071498;28;20024;-66
2022/06/21 00:47:02;;;;;;;4.88;4.18;;;;;;;19.48;65.19;95402.97;5058121;28;20017;-66
2022/06/21 00:49:33;;;;;;;5.68;3.85;;;;;;;19.43;65.42;95400.91;5070555;28;20497;-66
2022/06/21 00:52:05;;;;;;;3.65;3.35;;;;;;;19.43;64.86;95394.75;5070910;28;20479;-66
2022/06/21 00:54:45;;;;;;;4.20;3.80;;;;;;;19.38;64.16;95398.03;5071242;28;20108;-65
2022/06/21 00:57:15;;;;;;;4.35;3.97;;;;;;;19.36;63.88;95391.25;5067428;28;20028;-65
2022/06/21 00:59:40;;;;;;;5.82;3.65;;;;;;;19.44;63.80;95401.72;5071457;28;20042;-66
2022/06/21 01:02:17;;;;;;;4.78;3.60;;;;;;;19.48;63.77;95400.31;5071883;28;20411;-65
2022/06/21 01:04:48;;;;;;;5.50;3.90;;;;;;;19.42;63.72;95401.94;5071498;28;20430;-66
2022/06/21 01:07:14;;;;;;;4.88;3.53;;;;;;;19.42;63.09;95404.63;5071198;28;20031;-66
2022/06/21 01:09:50;;;;;;;7.82;4.20;;;;;;;19.39;63.62;95415.72;5072012;28;20113;-65
2022/06/21 01:12:24;;;;;;;5.95;3.78;;;;;;;19.31;64.11;95407.88;5070089;28;20027;-66
2022/06/21 01:15:05;;;;;;;5.53;3.83;;;;;;;19.25;64.22;95424.72;5064308;28;20024;-65
2022/06/21 01:17:31;;;;;;;9.68;4.28;;;;;;;19.14;64.84;95420.78;5070627;28;20098;-65
2022/06/21 01:20:10;;;;;;;5.60;4.32;;;;;;;19.27;64.21;95430.66;5071645;28;20025;-65
2022/06/21 01:22:56;;;;;;;4.35;3.95;;;;;;;19.09;65.00;95426.72;5069564;28;20056;-65
2022/06/21 01:25:21;;;;;;;;;;;;;;;19.05;66.60;95430.81;5030720;28;20090;-65
2022/06/21 01:27:47;;;;;;;7.87;4.33;;;;;;;18.97;65.63;95439.00;5070351;28;19916;-65
2022/06/21 01:30:12;;;;;;;5.40;4.22;;;;;;;18.95;65.29;95435.72;5070892;28;20033;-66
2022/06/21 01:32:38;;;;;;;4.43;3.55;;;;;;;18.86;65.65;95433.19;5071136;28;20052;-65
2022/06/21 01:35:13;;;;;;;4.18;3.78;;;;;;;18.87;66.48;95442.03;5070544;28;20081;-65
2022/06/21 01:37:40;;;;;;;5.13;3.90;;;;;;;18.85;66.02;95428.88;5070799;28;20513;-66
2022/06/21 01:40:16;;;;;;;11.80;5.38;;;;;;;18.92;65.87;95441.44;5070610;28;20454;-66
2022/06/21 01:42:48;;;;;;;3.35;3.13;;;;;;;18.89;64.94;95448.00;5069084;28;20303;-65
2022/06/21 01:45:19;;;;;;;4.22;3.80;;;;;;;18.83;65.15;95448.81;5070984;28;20044;-65
2022/06/21 01:48:01;;;;;;;6.97;4.10;;;;;;;18.76;66.03;95462.91;5070548;28;20048;-66
2022/06/21 01:50:27;;;;;;;6.63;3.92;;;;;;;18.70;66.05;95460.25;5070022;28;20028;-65
2022/06/21 01:52:55;;;;;;;4.22;3.85;;;;;;;18.72;66.24;95458.19;5068383;28;20021;-65
2022/06/21 01:55:39;;;;;;;10.68;4.35;;;;;;;18.75;65.90;95461.25;5066078;28;20514;-65
2022/06/21 01:58:09;;;;;;;7.72;4.28;;;;;;;18.68;66.71;95464.91;5070784;28;20070;-65
2022/06/21 02:00:36;;;;;;;4.25;3.85;;;;;;;18.64;66.85;95467.19;5070351;28;20027;-65
2022/06/21 02:03:12;;;;;;;5.07;4.03;;;;;;;18.64;67.35;95466.34;5071019;28;20454;-65
2022/06/21 02:05:55;;;;;;;3.92;3.63;;;;;;;18.71;66.81;95459.22;5069453;28;20025;-66
2022/06/21 02:08:26;;;;;;;4.38;4.00;;;;;;;18.60;67.29;95464.06;5069082;28;20032;-66
2022/06/21 02:10:57;;;;;;;6.90;3.60;;;;;;;18.50;67.58;95454.78;5070233;28;20020;-65
2022/06/21 02:13:31;;;;;;;7.45;3.92;;;;;;;18.46;66.97;95454.38;5070506;28;20028;-66
2022/06/21 02:16:02;;;;;;;6.67;3.90;;;;;;;18.50;67.01;95460.13;5053499;28;20466;-66
2022/06/21 02:18:31;;;;;;;5.18;4.05;;;;;;;18.48;67.04;95457.69;5070315;28;20016;-65
2022/06/21 02:21:10;;;;;;;6.95;4.00;;;;;;;18.46;67.60;95454.38;5069825;28;20041;-66
2022/06/21 02:23:35;;;;;;;6.35;4.07;;;;;;;18.44;67.55;95467.06;5069809;28;20620;-65
2022/06/21 02:26:01;;;;;;;4.40;3.97;;;;;;;18.39;68.51;95453.50;5069663;28;20099;-66
2022/06/21 02:28:28;;;;;;;5.55;4.40;;;;;;;18.36;68.12;95441.44;5070035;28;20028;-66
2022/06/21 02:30:55;;;;;;;8.25;4.30;;;;;;;18.29;67.46;95444.03;5069822;28;20029;-65
2022/06/21 02:33:23;;;;;;;4.45;4.05;;;;;;;18.31;67.25;95444.66;5070458;28;20029;-65
2022/06/21 02:35:54;;;;;;;9.77;4.03;;;;;;;18.25;68.07;95436.63;5069610;28;20028;-66
2022/06/21 02:38:25;;;;;;;5.28;3.97;;;;;;;18.23;67.87;95439.47;5069522;28;20020;-66
2022/06/21 02:40:56;;;;;;;5.13;4.10;;;;;;;18.27;67.57;95434.59;5062048;28;20037;-65
2022/06/21 02:43:27;;;;;;;4.90;4.47;;;;;;;18.24;67.91;95424.34;5069280;28;20028;-66
2022/06/21 02:46:13;;;;;;;4.75;4.25;;;;;;;18.18;68.91;95434.75;5065211;28;20043;-66
2022/06/21 02:48:47;;;;;;;5.95;4.03;;;;;;;18.14;68.51;95430.84;5066182;28;20032;-65
2022/06/21 02:51:19;;;;;;;7.70;3.92;;;;;;;18.18;68.13;95424.09;5068933;28;20029;-66
2022/06/21 02:53:50;;;;;;;5.22;4.68;;;;;;;18.19;68.60;95419.59;5069472;28;20097;-66
2022/06/21 02:56:20;;;;;;;5.30;4.10;;;;;;;18.15;67.82;95421.00;5063720;28;20484;-65
2022/06/21 02:58:54;;;;;;;8.10;4.28;;;;;;;18.16;67.81;95420.81;5067513;28;20451;-66
2022/06/21 03:01:34;;;;;;;5.38;4.28;;;;;;;18.19;67.92;95419.59;5066091;28;20024;-65
2022/06/21 03:04:00;;;;;;;6.82;4.20;;;;;;;18.13;68.73;95415.06;5069035;28;20017;-66
2022/06/21 03:06:27;;;;;;;4.03;3.72;;;;;;;18.04;67.90;95420.53;5069428;28;20066;-66
2022/06/21 03:09:06;;;;;;;6.03;4.00;;;;;;;18.08;66.67;95414.81;5069241;28;20073;-65
2022/06/21 03:11:40;;;;;;;5.13;3.97;;;;;;;18.08;66.38;95412.97;5066493;28;20020;-65
2022/06/21 03:14:27;;;;;;;9.27;4.37;;;;;;;18.13;66.79;95417.72;5068978;28;20568;-66
2022/06/21 03:16:56;;;;;;;9.50;3.80;;;;;;;18.16;67.42;95420.81;5064264;28;20860;-65
2022/06/21 03:19:27;;;;;;;9.90;4.53;;;;;;;18.12;68.19;95414.22;5064987;28;20059;-65
2022/06/21 03:21:54;;;;;;;7.20;4.20;;;;;;;18.09;68.13;95419.94;5061820;28;20033;-66
2022/06/21 03:24:23;;;;;;;7.13;4.20;;;;;;;18.06;67.75;95412.34;5069327;28;20020;-65
2022/06/21 03:26:59;;;;;;;4.82;4.43;;;;;;;17.98;69.21;95415.13;5068576;28;20039;-66
2022/06/21 03:29:24;;;;;;;6.80;3.75;;;;;;;17.95;69.04;95416.34;5068835;28;20535;-64
2022/06/21 03:31:51;;;;;;;9.15;4.32;;;;;;;17.89;68.55;95419.78;5069130;28;20116;-65
2022/06/21 03:34:20;;;;;;;6.63;4.53;;;;;;;17.91;69.24;95420.41;5067303;28;20110;-66
2022/06/21 03:36:47;;;;;;;6.22;4.60;;;;;;;17.93;68.46;95421.03;5069419;28;20031;-66
2022/06/21 03:39:18;;;;;;;4.10;3.50;;;;;;;17.91;68.36;95428.41;5069437;28;20032;-66
2022/06/21 03:41:45;;;;;;;12.48;11.15;;;;;;;17.88;69.12;95434.13;5069558;28;20107;-66
2022/06/21 03:44:23;;;;;;;6.00;4.65;;;;;;;17.87;67.91;95432.47;5051280;28;20519;-66
2022/06/21 03:46:54;;;;;;;7.25;4.13;;;;;;;17.87;68.51;95435.94;5069418;28;20384;-66
2022/06/21 03:49:28;;;;;;;7.03;4.05;;;;;;;17.83;68.96;95428.56;5069501;28;20025;-66
2022/06/21 03:51:55;;;;;;;6.80;4.17;;;;;;;17.75;68.77;95427.66;5069332;28;20108;-66
2022/06/21 03:54:24;;;;;;;8.60;4.30;;;;;;;17.56;69.16;95444.31;5069570;28;20275;-66
2022/06/21 03:56:49;;;;;;;6.50;4.38;;;;;;;17.52;70.72;95443.88;5069240;28;20024;-66
2022/06/21 03:59:40;;;;;;;6.13;4.32;;;;;;;17.56;70.14;95444.31;5068290;28;20391;-66
2022/06/21 04:02:11;;;;;;;9.27;4.72;;;;;;;17.63;69.59;95447.03;5063837;28;20044;-65
2022/06/21 04:04:44;;;;;;;7.50;6.00;;;;;;;17.62;69.74;95446.22;5069463;28;20064;-66
2022/06/21 04:07:33;;;;;;;8.63;4.50;;;;;;;17.65;69.42;95451.16;5069205;28;20363;-65
2022/06/21 04:10:09;;;;;;;7.55;4.80;;;;;;;17.69;69.08;95455.06;5069239;28;20037;-66
2022/06/21 04:13:25;;;;;;;6.20;4.68;;;;;;;17.72;69.42;95452.03;5069632;28;20028;-66
2022/06/21 04:16:10;;;;;;;5.83;4.60;;;;;;;17.78;69.78;95458.41;5028064;28;20048;-66
2022/06/21 04:19:08;;;;;;;9.20;4.38;;;;;;;17.81;69.03;95452.72;5069317;28;20567;-66
2022/06/21 04:22:12;;;;;;;14.55;4.50;;;;;;;17.74;69.70;95455.31;5064659;28;20052;-65
2022/06/21 04:24:49;;;;;;;9.32;4.40;;;;;;;17.86;69.37;95454.81;5038253;28;20395;-66
2022/06/21 04:27:30;;;;;;;7.55;4.55;;;;;;;17.94;69.08;95451.16;5068895;28;20426;-66
2022/06/21 04:30:02;;;;;;;9.07;4.97;;;;;;;17.99;69.88;95456.72;5070277;28;20028;-66
2022/06/21 04:32:48;;;;;;;6.22;3.90;;;;;;;18.10;69.13;95452.75;5072544;28;20423;-66
2022/06/21 04:35:32;;;;;;;9.60;4.78;;;;;;;18.16;69.34;95452.78;5072737;28;20475;-66
2022/06/21 04:38:21;;;;;;;5.70;4.35;;;;;;;18.25;68.25;95457.94;5071905;28;20507;-66
2022/06/21 04:41:02;;;;;;;6.70;4.40;;;;;;;18.26;68.00;95465.75;5070811;28;20089;-66
2022/06/21 04:43:48;;;;;;;10.75;4.25;;;;;;;18.42;66.84;95458.44;5072503;28;20028;-66
2022/06/21 04:46:22;;;;;;;9.02;4.88;;;;;;;18.46;67.46;95454.38;5069571;28;20021;-66
2022/06/21 04:49:12;;;;;;;7.75;4.55;;;;;;;18.50;67.38;95465.47;5068306;28;20032;-66
2022/06/21 04:51:44;;;;;;;10.82;4.70;;;;;;;18.66;67.11;95469.63;5072297;28;20168;-66
2022/06/21 04:54:20;;;;;;;9.98;4.38;;;;;;;18.65;67.92;95458.16;5072774;28;20542;-66
2022/06/21 04:57:04;;;;;;;7.30;4.15;;;;;;;18.66;68.32;95464.31;5053744;28;20021;-66
2022/06/21 04:59:31;;;;;;;6.03;4.38;;;;;;;18.69;67.51;95459.41;5062873;28;20519;-66
2022/06/21 05:01:57;;;;;;;5.40;4.45;;;;;;;18.76;66.98;95467.44;5072103;28;20115;-66
2022/06/21 05:04:35;;;;;;;10.75;4.25;;;;;;;18.99;66.05;95471.66;5071122;28;20024;-66
2022/06/21 05:07:10;;;;;;;9.68;4.45;;;;;;;19.10;64.53;95471.06;5072101;28;20037;-66
2022/06/21 05:09:36;;;;;;;6.53;4.53;;;;;;;19.06;64.04;95464.47;5071789;28;20051;-66
2022/06/21 05:12:06;;;;;;;8.88;4.60;;;;;;;18.95;65.32;95454.38;5071997;28;20393;-66
2022/06/21 05:14:39;;;;;;;7.88;3.95;;;;;;;18.93;65.36;95459.09;5071896;28;20017;-66
2022/06/21 05:17:10;;;;;;;8.95;4.30;;;;;;;18.88;65.81;95457.81;5071740;28;20044;-66
2022/06/21 05:19:41;;;;;;;5.45;4.50;;;;;;;18.88;65.09;95447.16;5068987;28;20082;-66
2022/06/21 05:22:30;;;;;;;5.28;4.05;;;;;;;18.93;65.82;95456.44;5066369;28;20111;-66
2022/06/21 05:24:58;;;;;;;5.20;3.85;;;;;;;18.96;66.63;95448.81;5063785;28;20033;-66
2022/06/21 05:27:49;;;;;;;8.52;4.20;;;;;;;18.98;67.66;95445.97;5069300;28;20027;-66
2022/06/21 05:30:45;;;;;;;6.47;4.38;;;;;;;19.07;66.99;95449.31;5071636;28;20025;-65
2022/06/21 05:33:33;;;;;;;11.38;4.10;;;;;;;19.18;66.40;95452.22;5062262;28;20028;-65
2022/06/21 05:36:01;;;;;;;8.95;4.13;;;;;;;19.35;65.61;95451.00;5062696;28;20025;-66
2022/06/21 05:38:31;;;;;;;6.88;4.65;;;;;;;19.33;65.75;95456.53;5070245;28;20108;-66
2022/06/21 05:40:56;;;;;;;12.15;3.78;;;;;;;19.34;65.46;95455.50;5069385;28;20028;-65
2022/06/21 05:43:42;;;;;;;8.15;3.78;;;;;;;19.44;64.39;95445.28;5070743;28;20409;-65
2022/06/21 05:46:15;;;;;;;6.47;3.63;;;;;;;19.71;64.76;95455.97;5067405;28;20563;-66
2022/06/21 05:48:42;;;;;;;8.25;4.18;;;;;;;19.86;63.28;95450.41;5057057;28;20032;-65
2022/06/21 05:51:14;;;;;;;8.25;4.15;;;;;;;20.04;62.89;95439.13;5066369;28;20025;-66
2022/06/21 05:53:46;;;;;;;8.20;4.05;;;;;;;20.08;63.16;95446.72;5060750;28;20675;-66
2022/06/21 05:56:17;;;;;;;5.88;3.72;;;;;;;20.14;63.02;95452.06;5068330;28;20024;-65
2022/06/21 05:58:59;;;;;;;8.57;4.22;;;;;;;20.24;62.48;95450.81;5068876;28;20126;-64
2022/06/21 06:01:33;;;;;;;11.02;3.90;;;;;;;20.39;61.24;95446.06;5069024;28;20111;-65
2022/06/21 06:04:26;;;;;;;15.85;4.13;;;;;;;20.47;59.81;95447.69;5069591;28;20036;-63
2022/06/21 06:06:55;;;;;;;10.35;4.45;;;;;;;20.53;59.87;95436.13;5070601;28;20508;-64
2022/06/21 06:09:26;;;;;;;17.58;4.47;;;;;;;20.60;60.75;95439.59;5070293;28;20103;-65
2022/06/21 06:12:02;;;;;;;5.38;3.88;;;;;;;20.68;61.13;95443.88;5070446;28;20060;-64
2022/06/21 06:14:50;;;;;;;9.98;4.30;;;;;;;20.84;61.52;95449.84;5057971;28;20105;-68
2022/06/21 06:17:34;;;;;;;11.70;4.32;;;;;;;21.06;60.26;95446.84;5051366;28;20606;-67
2022/06/21 06:20:09;;;;;;;4.68;3.55;;;;;;;21.28;60.61;95439.28;5045762;28;20665;-67
2022/06/21 06:22:51;;;;;;;;;;;;;;;21.53;57.84;95443.88;5070643;28;20495;-68
2022/06/21 06:25:31;;;;;;;14.30;4.15;;;;;;;21.61;56.36;95443.63;5069007;28;19927;-67
2022/06/21 06:28:08;;;;;;;10.88;4.53;;;;;;;21.69;57.98;95446.03;5069833;28;20103;-67
2022/06/21 06:30:45;;;;;;;11.68;4.25;;;;;;;21.83;56.00;95429.88;5065398;28;20032;-68
2022/06/21 06:33:33;;;;;;;9.32;4.90;;;;;;;21.93;57.92;95434.72;5064293;28;20055;-67
2022/06/21 06:36:06;;;;;;;7.15;4.65;;;;;;;21.87;58.28;95436.44;5064308;28;20029;-68
2022/06/21 06:38:31;;;;;;;7.35;4.72;;;;;;;21.93;58.08;95427.50;5067477;28;20033;-68
2022/06/21 06:41:05;;;;;;;7.15;4.72;;;;;;;21.99;58.75;95429.28;5067935;28;20027;-68
2022/06/21 06:44:04;;;;;;;12.30;4.90;;;;;;;22.16;59.49;95428.72;5068973;28;20086;-68
2022/06/21 06:46:33;;;;;;;56.50;12.15;;;;;;;22.35;57.53;95428.75;5065767;28;20067;-68
2022/06/21 06:49:18;;;;;;;15.50;5.75;;;;;;;22.41;53.85;95427.84;5063431;28;20044;-68
2022/06/21 06:51:59;;;;;;;7.95;4.70;;;;;;;22.56;54.24;95439.06;5068627;28;20036;-68
2022/06/21 06:54:47;;;;;;;6.35;4.57;;;;;;;22.64;54.13;95429.06;5067868;28;20071;-68
2022/06/21 06:57:32;;;;;;;6.65;3.90;;;;;;;22.87;52.21;95431.06;5068553;28;20085;-67
2022/06/21 06:59:59;;;;;;;9.67;4.10;;;;;;;23.14;52.08;95425.34;5066543;28;20028;-68
2022/06/21 07:02:30;;;;;;;6.72;4.05;;;;;;;23.65;50.88;95423.16;5064973;28;20325;-68
2022/06/21 07:05:04;;;;;;;8.88;3.70;;;;;;;23.99;49.43;95418.06;5068518;28;20048;-68
2022/06/21 07:07:40;;;;;;;8.32;3.70;;;;;;;24.24;48.73;95421.56;5068296;28;20112;-68
2022/06/21 07:10:13;;;;;;;8.25;3.58;;;;;;;24.31;48.00;95423.09;5068152;28;20717;-68
2022/06/21 07:12:39;;;;;;;9.30;4.18;;;;;;;24.58;47.61;95417.19;5068305;28;20039;-67
2022/06/21 07:15:04;;;;;;;9.57;3.70;;;;;;;24.72;45.96;95420.44;5057910;28;20487;-68
2022/06/21 07:17:36;;;;;;;4.95;3.63;;;;;;;24.93;45.12;95425.44;5069779;28;20024;-69
2022/06/21 07:20:03;;;;;;;5.68;3.22;;;;;;;24.78;46.08;95415.22;5069795;28;20083;-69
2022/06/21 07:22:34;;;;;;;8.15;3.65;;;;;;;24.93;47.10;95428.16;5069066;28;20024;-68
2022/06/21 07:25:14;;;;;;;7.00;3.83;;;;;;;24.83;45.66;95418.00;5069320;28;20109;-69
2022/06/21 07:27:43;;;;;;;8.23;3.38;;;;;;;25.09;45.39;95431.94;5069648;28;20108;-68
2022/06/21 07:30:12;;;;;;;8.93;3.45;;;;;;;25.45;44.56;95424.53;5068380;28;20028;-68
2022/06/21 07:32:48;;;;;;;9.57;3.55;;;;;;;25.76;43.30;95414.25;5062705;28;20089;-69
2022/06/21 07:35:29;;;;;;;6.13;3.30;;;;;;;25.81;42.51;95418.94;5068232;28;20054;-67
2022/06/21 07:38:10;;;;;;;6.07;3.85;;;;;;;26.13;41.16;95418.31;5063387;28;20776;-67
2022/06/21 07:40:55;;;;;;;6.43;3.20;;;;;;;26.50;41.10;95416.97;5051497;28;20028;-67
2022/06/21 07:43:41;;;;;;;4.72;3.00;;;;;;;26.93;40.36;95419.94;5069145;28;20032;-67
2022/06/21 07:46:11;;;;;;;9.65;3.60;;;;;;;27.25;40.42;95411.91;5069601;28;20650;-68
2022/06/21 07:48:50;;;;;;;4.88;3.10;;;;;;;27.30;38.56;95413.84;5069160;28;20063;-68
2022/06/21 07:51:20;;;;;;;7.20;3.45;;;;;;;27.44;39.19;95414.25;5062680;28;20036;-68
2022/06/21 07:54:10;;;;;;;7.40;4.63;;;;;;;27.67;38.21;95401.50;5069549;28;20528;-68
2022/06/21 07:56:45;;;;;;;9.20;5.90;;;;;;;27.99;37.27;95404.19;5065064;28;20054;-66
2022/06/21 07:59:33;;;;;;;20.15;14.93;;;;;;;27.93;36.34;95396.28;5069530;28;20028;-70
2022/06/21 08:07:41;;;;;;;5.78;5.22;;;;;;;28.19;36.46;95380.25;5073568;28;20027;-70
2022/06/21 08:10:35;;;;;;;5.68;4.50;;;;;;;27.70;38.07;95385.56;5071846;28;20027;-71
2022/06/21 08:13:01;;;;;;;4.72;3.38;;;;;;;26.67;39.40;95382.63;5067951;28;20400;-70
2022/06/21 08:15:42;;;;;;;9.05;4.03;;;;;;;26.23;41.23;95388.84;5073303;28;20051;-70
2022/06/21 08:18:18;;;;;;;8.43;3.78;;;;;;;26.03;41.99;95373.13;5073042;28;20021;-70
2022/06/21 08:20:49;;;;;;;6.50;3.65;;;;;;;26.04;41.98;95380.16;5072996;28;20062;-70
2022/06/21 08:23:22;;;;;;;4.68;3.72;;;;;;;26.41;41.46;95370.69;5073055;28;20492;-70
2022/06/21 08:26:29;;;;;;;11.40;5.53;;;;;;;26.79;42.72;95382.50;5072872;28;20012;-70
2022/06/21 08:29:09;;;;;;;4.82;3.83;;;;;;;27.45;38.25;95370.75;5072529;28;20554;-70
2022/06/21 08:31:40;;;;;;;9.15;7.53;;;;;;;27.80;38.54;95368.59;5072741;28;20020;-70
2022/06/21 08:34:11;;;;;;;8.65;3.80;;;;;;;28.14;38.16;95367.47;5072947;28;20478;-71
2022/06/21 08:36:49;;;;;;;4.22;3.20;;;;;;;28.27;38.38;95374.34;5072765;28;20078;-70
2022/06/21 08:39:25;;;;;;;7.85;3.58;;;;;;;28.73;37.41;95365.59;5072937;28;20024;-70
2022/06/21 08:42:21;;;;;;;15.15;3.25;;;;;;;29.39;35.78;95369.56;5072629;28;20044;-70
2022/06/21 08:48:09;;;;;;;8.60;5.80;;;;;;;29.86;34.05;95361.44;5072533;28;20078;-70
2022/06/21 08:51:03;;;;;;;4.10;3.25;;;;;;;29.53;34.88;95360.94;5072451;28;20527;-70
2022/06/21 08:53:49;;;;;;;8.80;3.83;;;;;;;29.55;37.11;95356.06;5072849;28;20020;-71
2022/06/21 08:56:20;;;;;;;5.07;3.40;;;;;;;29.48;36.99;95356.31;5072552;28;20487;-70
2022/06/21 08:58:48;;;;;;;5.38;3.97;;;;;;;29.96;35.74;95347.88;5072302;28;20028;-71
2022/06/21 09:02:03;;;;;;;7.45;3.25;;;;;;;30.04;35.85;95346.50;5072498;28;20024;-71
2022/06/21 09:04:50;;;;;;;13.57;3.70;;;;;;;29.32;35.57;95341.91;5050726;28;20110;-71
2022/06/21 09:07:15;;;;;;;10.70;3.47;;;;;;;28.51;39.00;95334.13;5072474;28;20078;-71
2022/06/21 09:09:59;;;;;;;8.83;3.90;;;;;;;28.13;39.21;95328.78;5072355;28;20025;-71
2022/06/21 09:12:43;;;;;;;11.07;3.60;;;;;;;28.43;40.11;95340.06;5072175;28;20265;-72
2022/06/21 09:15:23;;;;;;;6.70;3.70;;;;;;;29.63;36.90;95339.22;5072066;28;20448;-72
2022/06/21 09:18:27;;;;;;;10.38;3.85;;;;;;;30.39;35.27;95336.66;5059648;28;20032;-71
2022/06/21 09:21:05;;;;;;;7.35;3.55;;;;;;;30.76;34.34;95326.47;5071694;28;20495;-71
2022/06/21 09:23:39;;;;;;;5.60;3.65;;;;;;;30.20;35.65;95333.75;5072373;28;20033;-71
2022/06/21 09:26:16;;;;;;;;;;;;;;;29.91;36.93;95333.50;5072370;28;20222;-71
2022/06/21 09:28:48;;;;;;;4.80;3.65;;;;;;;30.50;37.02;95333.88;5071991;28;19921;-71
2022/06/21 09:31:13;;;;;;;5.55;3.50;;;;;;;31.04;34.74;95332.25;5071714;28;20020;-71
2022/06/21 09:33:42;;;;;;;6.43;3.27;;;;;;;31.24;34.13;95322.38;5071832;28;20031;-71
2022/06/21 09:36:32;;;;;;;10.07;3.70;;;;;;;30.92;34.75;95331.81;5071659;28;20255;-71
2022/06/21 09:39:16;;;;;;;9.77;3.50;;;;;;;31.34;34.23;95337.81;5071820;28;20066;-71
2022/06/21 09:41:57;;;;;;;9.50;3.38;;;;;;;30.93;33.59;95325.28;5059756;28;20078;-71
2022/06/21 09:44:54;;;;;;;7.15;3.75;;;;;;;30.47;36.40;95329.84;5071474;28;20077;-71
2022/06/21 09:47:31;;;;;;;4.18;3.10;;;;;;;30.26;36.82;95318.22;5071531;28;20052;-71
2022/06/21 09:50:03;;;;;;;7.32;3.50;;;;;;;30.20;37.20;95316.63;5071244;28;20407;-71
2022/06/21 09:52:58;;;;;;;8.02;3.35;;;;;;;30.84;34.52;95304.16;5071609;28;20093;-72
2022/06/21 09:55:53;;;;;;;5.90;3.70;;;;;;;31.49;34.52;95301.50;5071519;28;20092;-72
2022/06/21 09:58:34;;;;;;;7.03;3.67;;;;;;;31.63;33.55;95294.31;5071340;28;20028;-72
2022/06/21 10:01:14;;;;;;;6.68;3.33;;;;;;;31.93;32.32;95303.28;5071201;28;20488;-72
2022/06/21 10:03:55;;;;;;;12.18;3.47;;;;;;;32.08;30.61;95296.06;5071219;28;20080;-71
2022/06/21 10:06:34;;;;;;;21.38;3.80;;;;;;;32.23;31.37;95301.34;5071291;28;20411;-72
2022/06/21 10:09:27;;;;;;;10.45;3.70;;;;;;;32.22;31.65;95297.00;5071090;28;20526;-71
2022/06/21 10:12:30;;;;;;;7.00;3.55;;;;;;;31.91;31.75;95299.25;5070909;28;20026;-72
2022/06/21 10:15:17;;;;;;;11.55;3.70;;;;;;;31.26;33.01;95293.81;5068411;28;20088;-71
2022/06/21 10:17:49;;;;;;;10.57;3.75;;;;;;;32.09;33.22;95278.63;5064924;28;20391;-72
2022/06/21 10:20:30;;;;;;;5.18;3.47;;;;;;;32.89;32.33;95286.41;5068601;28;20020;-72
2022/06/21 10:23:30;;;;;;;16.30;3.78;;;;;;;33.07;32.68;95292.94;5068803;28;20132;-75
2022/06/21 10:26:10;;;;;;;10.25;3.50;;;;;;;32.91;33.50;95273.28;5065431;28;20021;-75
2022/06/21 10:28:48;;;;;;;5.95;3.53;;;;;;;33.40;32.57;95284.78;5068647;28;20438;-73
2022/06/21 10:31:51;;;;;;;5.93;3.53;;;;;;;33.45;32.67;95286.63;5069870;28;20029;-72
2022/06/21 10:34:29;;;;;;;8.52;3.80;;;;;;;33.49;32.00;95290.38;5070423;28;20020;-71
2022/06/21 10:37:03;;;;;;;8.77;3.78;;;;;;;33.03;34.36;95279.06;5068916;28;20439;-73
2022/06/21 10:39:49;;;;;;;6.25;3.50;;;;;;;33.36;33.53;95289.19;5068459;28;20020;-72
2022/06/21 10:45:31;;;;;;;12.57;4.07;;;;;;;33.81;30.85;95283.28;5068127;28;20031;-73
2022/06/21 10:48:15;;;;;;;7.63;3.83;;;;;;;34.21;29.61;95280.09;5070205;28;20020;-75
2022/06/21 10:51:07;;;;;;;18.77;4.47;;;;;;;34.50;28.71;95268.84;5070618;28;20117;-74
2022/06/21 10:54:00;;;;;;;10.25;4.15;;;;;;;34.11;29.79;95264.72;5070086;28;20104;-71
2022/06/21 11:03:34;;;;;;;8.20;3.55;;;;;;;34.29;28.77;95265.72;5000874;28;20088;-79
2022/06/21 11:06:02;;;;;;;20.08;3.95;;;;;;;34.52;28.04;95257.63;5005441;28;20073;-74
2022/06/21 11:08:49;;;;;;;11.73;3.92;;;;;;;34.89;26.61;95266.63;5055403;28;20036;-73
2022/06/21 11:11:26;;;;;;;13.82;3.50;;;;;;;34.72;25.96;95259.09;5067696;28;20055;-72
2022/06/21 11:14:13;;;;;;;16.08;4.38;;;;;;;34.39;26.94;95256.50;5068566;28;20028;-74
2022/06/21 11:17:06;;;;;;;13.07;3.63;;;;;;;34.32;26.66;95259.66;5068671;28;20412;-74
2022/06/21 11:20:05;;;;;;;13.80;3.45;;;;;;;34.06;26.90;95251.16;5067334;28;20104;-72
2022/06/21 11:22:45;;;;;;;9.15;4.10;;;;;;;34.70;25.37;95244.94;5068560;28;20032;-72
2022/06/21 11:25:36;;;;;;;12.60;3.83;;;;;;;34.55;25.99;95244.16;5070068;28;20068;-72
2022/06/21 11:28:54;;;;;;;19.17;3.58;;;;;;;35.05;24.93;95238.97;5069681;28;20032;-72
2022/06/21 11:31:48;;;;;;;14.38;3.97;;;;;;;35.11;23.71;95230.34;5041181;28;20040;-72
2022/06/21 11:34:36;;;;;;;12.35;3.65;;;;;;;35.61;23.35;95235.97;5064709;28;21037;-73
2022/06/21 11:37:33;;;;;;;17.63;3.92;;;;;;;35.18;23.53;95218.13;5069623;28;20040;-71
2022/06/21 11:40:24;;;;;;;18.02;4.32;;;;;;;35.40;24.96;95215.38;5065692;28;20108;-71
2022/06/21 11:42:52;;;;;;;15.18;4.18;;;;;;;36.04;22.91;95215.38;5069423;28;20426;-70
2022/06/21 11:45:32;;;;;;;23.05;3.80;;;;;;;35.81;23.86;95210.78;5064754;28;20021;-71
2022/06/21 11:48:29;;;;;;;25.42;4.00;;;;;;;36.11;22.53;95212.97;5069260;28;20103;-70
2022/06/21 11:51:09;;;;;;;14.02;3.80;;;;;;;35.94;25.27;95210.97;5069336;28;20029;-71
2022/06/21 11:54:07;;;;;;;11.07;4.03;;;;;;;36.13;23.57;95213.47;5069559;28;20024;-70
2022/06/21 11:56:59;;;;;;;13.40;3.63;;;;;;;35.86;25.41;95204.34;5069538;28;20040;-70
2022/06/21 11:59:49;;;;;;;11.23;3.92;;;;;;;35.05;28.67;95198.78;5058688;28;20040;-71
2022/06/21 12:02:24;;;;;;;10.73;4.18;;;;;;;34.60;29.06;95194.03;5069620;28;20103;-72
2022/06/21 12:05:02;;;;;;;11.52;4.20;;;;;;;34.73;29.04;95175.97;5069526;28;20082;-72
2022/06/21 12:07:50;;;;;;;14.10;3.80;;;;;;;33.69;30.16;95183.59;5069430;28;20103;-71
2022/06/21 12:10:15;;;;;;;12.05;3.55;;;;;;;34.49;28.96;95188.00;5069596;28;20020;-70
2022/06/21 12:13:09;;;;;;;13.20;3.87;;;;;;;34.94;27.86;95180.97;5069582;28;20039;-70
2022/06/21 12:15:52;;;;;;;9.65;3.78;;;;;;;35.17;26.65;95184.53;5068967;28;20267;-72
2022/06/21 12:18:22;;;;;;;14.90;3.60;;;;;;;34.88;26.65;95179.47;5069901;28;20518;-71
2022/06/21 12:20:53;;;;;;;14.50;4.30;;;;;;;34.79;26.07;95173.94;5069550;28;20225;-73
2022/06/21 12:23:53;;;;;;;14.30;4.03;;;;;;;34.61;27.69;95179.25;5069819;28;20032;-72
2022/06/21 12:26:25;;;;;;;14.15;3.80;;;;;;;34.75;26.86;95181.94;5026597;28;20538;-72
2022/06/21 12:28:54;;;;;;;19.73;4.05;;;;;;;35.12;25.23;95185.47;5069076;28;20024;-71
2022/06/21 12:31:44;;;;;;;15.57;3.97;;;;;;;35.04;25.32;95183.47;5069712;28;20077;-71
2022/06/21 12:34:11;;;;;;;11.00;3.95;;;;;;;35.08;25.50;95170.78;5069191;28;20063;-70
2022/06/21 12:37:00;;;;;;;10.88;3.40;;;;;;;34.81;26.14;95168.97;5069169;28;20086;-71
2022/06/21 12:39:32;;;;;;;11.45;3.83;;;;;;;34.97;26.96;95163.94;5069148;28;20438;-71